createdAt,value
2023-04-28T00:02:20.868Z,93501.31
2023-04-28T00:04:48.696Z,93501.75
2023-04-28T00:07:16.134Z,93502.31
2023-04-28T00:09:43.438Z,93508.53
2023-04-28T00:12:11.541Z,93513.75
2023-04-28T00:14:38.867Z,93511.06
2023-04-28T00:17:06.224Z,93506.22
2023-04-28T00:19:34.784Z,93505.13
2023-04-28T00:22:02.133Z,93502.13
2023-04-28T00:24:29.355Z,93511.69
2023-04-28T00:26:57.855Z,93513.91
2023-04-28T00:29:25.364Z,93513.13
2023-04-28T00:31:52.743Z,93509.34
2023-04-28T00:34:20.761Z,93513.13
2023-04-28T00:36:48.049Z,93517.38
2023-04-28T00:39:16.458Z,93511.16
2023-04-28T00:41:44.049Z,93512.16
2023-04-28T00:44:11.337Z,93518.94
2023-04-28T00:46:38.811Z,93511.31
2023-04-28T00:49:06.659Z,93515.53
2023-04-28T00:51:34.022Z,93513.34
2023-04-28T00:54:02.056Z,93513.34
2023-04-28T00:56:31.434Z,93512.56
2023-04-28T00:58:58.961Z,93516.97
2023-04-28T01:01:26.436Z,93517.75
2023-04-28T01:03:54.690Z,93524.75
2023-04-28T01:06:23.059Z,93521.75
2023-04-28T01:08:51.272Z,93530.37
2023-04-28T01:11:19.133Z,93532.16
2023-04-28T01:13:47.289Z,93528.97
2023-04-28T01:16:14.792Z,93523.59
2023-04-28T01:18:47.634Z,93533.97
2023-04-28T01:21:15.553Z,93529.16
2023-04-28T01:23:46.791Z,93532.34
2023-04-28T01:26:14.345Z,93535.78
2023-04-28T01:28:41.626Z,93535.19
2023-04-28T01:31:09.529Z,93543.72
2023-04-28T01:33:37.164Z,93539.16
2023-04-28T01:36:04.861Z,93538.94
2023-04-28T01:38:32.508Z,93546.91
2023-04-28T01:40:59.995Z,93542.50
2023-04-28T01:43:27.246Z,93541.12
2023-04-28T01:45:55.013Z,93549.84
2023-04-28T01:48:22.326Z,93543.91
2023-04-28T01:50:49.628Z,93547.69
2023-04-28T01:53:20.754Z,93544.22
2023-04-28T01:55:48.350Z,93551.41
2023-04-28T01:58:16.101Z,93550.38
2023-04-28T02:00:44.376Z,93547.78
2023-04-28T02:03:14.110Z,93545.56
2023-04-28T02:05:41.566Z,93540.22
2023-04-28T02:08:08.981Z,93547.16
2023-04-28T02:10:36.692Z,93545.50
2023-04-28T02:13:04.027Z,93556.47
2023-04-28T02:15:31.357Z,93556.88
2023-04-28T02:17:58.948Z,93554.44
2023-04-28T02:20:27.254Z,93552.97
2023-04-28T02:22:54.994Z,93553.63
2023-04-28T02:25:22.374Z,93553.53
2023-04-28T02:27:49.784Z,93563.34
2023-04-28T02:30:17.475Z,93573.06
2023-04-28T02:32:44.793Z,93566.50
2023-04-28T02:35:12.620Z,93568.09
2023-04-28T02:37:40.303Z,93577.19
2023-04-28T02:40:08.244Z,93570.38
2023-04-28T02:42:35.690Z,93574.81
2023-04-28T02:45:03.463Z,93567.87
2023-04-28T02:47:31.113Z,93567.84
2023-04-28T02:49:58.944Z,93578.81
2023-04-28T02:52:26.968Z,93578.44
2023-04-28T02:54:58.479Z,93583.28
2023-04-28T02:57:26.339Z,93580.00
2023-04-28T02:59:54.531Z,93587.06
2023-04-28T03:02:23.420Z,93590.37
2023-04-28T03:04:50.958Z,93585.41
2023-04-28T03:07:18.738Z,93596.16
2023-04-28T03:09:46.544Z,93596.16
2023-04-28T03:12:13.934Z,93598.97
2023-04-28T03:14:41.837Z,93599.50
2023-04-28T03:17:10.223Z,93602.34
2023-04-28T03:19:37.917Z,93604.00
2023-04-28T03:22:05.894Z,93613.13
2023-04-28T03:24:33.264Z,93613.37
2023-04-28T03:27:00.545Z,93617.50
2023-04-28T03:29:28.282Z,93613.13
2023-04-28T03:31:55.824Z,93609.62
2023-04-28T03:34:23.173Z,93621.63
2023-04-28T03:36:50.842Z,93629.94
2023-04-28T03:39:19.171Z,93625.44
2023-04-28T03:41:46.663Z,93629.56
2023-04-28T03:44:16.631Z,93638.25
2023-04-28T03:46:45.128Z,93645.66
2023-04-28T03:49:13.006Z,93641.94
2023-04-28T03:51:42.270Z,93643.56
2023-04-28T03:54:09.881Z,93650.41
2023-04-28T03:56:37.346Z,93656.56
2023-04-28T03:59:05.204Z,93652.13
2023-04-28T04:01:32.503Z,93660.94
2023-04-28T04:04:01.439Z,93663.62
2023-04-28T04:06:29.002Z,93661.13
2023-04-28T04:08:56.746Z,93665.88
2023-04-28T04:11:24.524Z,93675.41
2023-04-28T04:13:51.752Z,93677.78
2023-04-28T04:16:19.296Z,93680.56
2023-04-28T04:18:47.232Z,93679.50
2023-04-28T04:21:14.955Z,93687.78
2023-04-28T04:23:42.267Z,93681.41
2023-04-28T04:26:09.953Z,93678.88
2023-04-28T04:28:37.747Z,93689.44
2023-04-28T04:31:05.522Z,93681.94
2023-04-28T04:33:34.852Z,93691.53
2023-04-28T04:36:02.451Z,93684.72
2023-04-28T04:38:30.059Z,93685.94
2023-04-28T04:40:58.863Z,93686.94
2023-04-28T04:43:26.680Z,93691.06
2023-04-28T04:45:54.359Z,93684.84
2023-04-28T04:48:23.185Z,93699.88
2023-04-28T04:50:50.623Z,93697.37
2023-04-28T04:53:17.981Z,93695.81
2023-04-28T04:55:45.801Z,93702.28
2023-04-28T04:58:14.844Z,93696.50
2023-04-28T05:00:42.940Z,93705.44
2023-04-28T05:03:12.017Z,93696.53
2023-04-28T05:05:40.472Z,93701.62
2023-04-28T05:08:08.312Z,93705.37
2023-04-28T05:10:36.011Z,93707.44
2023-04-28T05:13:04.108Z,93697.09
2023-04-28T05:15:31.906Z,93705.53
2023-04-28T05:18:06.610Z,93701.25
2023-04-28T05:20:34.030Z,93699.59
2023-04-28T05:23:01.749Z,93697.06
2023-04-28T05:25:29.212Z,93696.53
2023-04-28T05:27:57.543Z,93695.38
2023-04-28T05:30:25.261Z,93697.63
2023-04-28T05:32:54.211Z,93689.84
2023-04-28T05:35:21.752Z,93701.47
2023-04-28T05:37:49.677Z,93695.06
2023-04-28T05:40:17.084Z,93692.88
2023-04-28T05:42:44.734Z,93694.03
2023-04-28T05:45:12.593Z,93697.25
2023-04-28T05:47:40.260Z,93698.81
2023-04-28T05:50:08.406Z,93685.22
2023-04-28T05:52:36.100Z,93698.63
2023-04-28T05:55:04.166Z,93697.59
2023-04-28T05:57:33.985Z,93705.41
2023-04-28T06:00:10.277Z,93703.16
2023-04-28T06:02:40.119Z,93698.75
2023-04-28T06:05:08.501Z,93705.13
2023-04-28T06:07:36.323Z,93708.19
2023-04-28T06:10:03.978Z,93695.97
2023-04-28T06:12:31.737Z,93696.50
2023-04-28T06:14:59.084Z,93698.41
2023-04-28T06:17:26.812Z,93702.00
2023-04-28T06:19:54.928Z,93702.50
2023-04-28T06:22:22.206Z,93703.88
2023-04-28T06:24:49.778Z,93694.59
2023-04-28T06:27:18.745Z,93700.44
2023-04-28T06:29:47.111Z,93703.03
2023-04-28T06:32:14.527Z,93698.19
2023-04-28T06:34:42.760Z,93703.06
2023-04-28T06:37:10.101Z,93707.16
2023-04-28T06:39:38.470Z,93707.09
2023-04-28T06:42:07.370Z,93708.44
2023-04-28T06:44:36.551Z,93708.06
2023-04-28T06:47:04.313Z,93711.69
2023-04-28T06:49:32.093Z,93701.78
2023-04-28T06:51:59.687Z,93694.78
2023-04-28T06:54:31.952Z,93697.31
2023-04-28T06:56:59.759Z,93693.09
2023-04-28T06:59:27.192Z,93692.09
2023-04-28T07:01:54.547Z,93685.84
2023-04-28T07:04:22.641Z,93685.03
2023-04-28T07:06:50.556Z,93686.66
2023-04-28T07:09:18.229Z,93683.56
2023-04-28T07:11:46.587Z,93686.06
2023-04-28T07:14:14.068Z,93689.37
2023-04-28T07:16:41.616Z,93687.88
2023-04-28T07:19:09.314Z,93690.06
2023-04-28T07:21:37.181Z,93688.41
2023-04-28T07:24:04.628Z,93689.91
2023-04-28T07:26:33.848Z,93692.09
2023-04-28T07:29:01.180Z,93690.03
2023-04-28T07:31:29.288Z,93688.75
2023-04-28T07:33:57.130Z,93685.66
2023-04-28T07:36:24.602Z,93679.62
2023-04-28T07:38:51.885Z,93687.47
2023-04-28T07:41:19.733Z,93682.37
2023-04-28T07:43:47.227Z,93692.31
2023-04-28T07:46:14.734Z,93692.94
2023-04-28T07:48:42.506Z,93685.84
2023-04-28T07:51:09.849Z,93692.63
2023-04-28T07:53:37.378Z,93681.09
2023-04-28T07:56:05.309Z,93677.81
2023-04-28T07:58:32.701Z,93677.91
2023-04-28T08:01:00.042Z,93683.22
2023-04-28T08:03:27.916Z,93679.81
2023-04-28T08:05:55.703Z,93682.94
2023-04-28T08:08:23.189Z,93679.53
2023-04-28T08:10:51.039Z,93683.81
2023-04-28T08:13:18.574Z,93682.94
2023-04-28T08:15:47.513Z,93679.75
2023-04-28T08:18:15.453Z,93669.25
2023-04-28T08:20:43.013Z,93669.25
2023-04-28T08:23:10.487Z,93671.28
2023-04-28T08:25:38.188Z,93669.41
2023-04-28T08:28:06.575Z,93668.13
2023-04-28T08:30:34.338Z,93669.63
2023-04-28T08:33:02.056Z,93664.09
2023-04-28T08:35:30.286Z,93655.31
2023-04-28T08:37:58.016Z,93660.09
2023-04-28T08:40:27.147Z,93655.56
2023-04-28T08:42:55.602Z,93654.78
2023-04-28T08:45:26.722Z,93648.19
2023-04-28T08:47:59.974Z,93647.00
2023-04-28T08:50:30.665Z,93643.25
2023-04-28T08:52:58.986Z,93651.91
2023-04-28T08:55:27.543Z,93641.16
2023-04-28T08:57:56.093Z,93643.94
2023-04-28T09:00:24.955Z,93649.41
2023-04-28T09:02:52.572Z,93642.16
2023-04-28T09:05:20.195Z,93640.19
2023-04-28T09:07:52.331Z,93644.28
2023-04-28T09:10:24.957Z,93654.63
2023-04-28T09:12:54.367Z,93649.94
2023-04-28T09:15:29.524Z,93646.25
2023-04-28T09:17:58.884Z,93640.50
2023-04-28T09:20:28.491Z,93629.22
2023-04-28T09:22:57.020Z,93637.59
2023-04-28T09:25:26.999Z,93637.31
2023-04-28T09:27:54.316Z,93630.00
2023-04-28T09:30:39.451Z,93626.91
2023-04-28T09:33:11.305Z,93619.28
2023-04-28T09:35:43.647Z,93620.03
2023-04-28T09:38:11.921Z,93626.16
2023-04-28T09:40:59.606Z,93618.47
2023-04-28T09:43:35.360Z,93614.75
2023-04-28T09:46:04.861Z,93611.84
2023-04-28T09:48:35.160Z,93606.87
2023-04-28T09:51:06.219Z,93601.50
2023-04-28T09:53:35.811Z,93599.16
2023-04-28T09:56:05.547Z,93598.37
2023-04-28T09:58:35.528Z,93597.97
2023-04-28T10:01:05.931Z,93596.22
2023-04-28T10:03:34.048Z,93594.38
2023-04-28T10:06:02.378Z,93593.16
2023-04-28T10:08:30.030Z,93579.25
2023-04-28T10:10:58.780Z,93589.19
2023-04-28T10:13:26.134Z,93582.87
2023-04-28T10:15:58.490Z,93576.56
2023-04-28T10:18:26.946Z,93565.66
2023-04-28T10:20:58.870Z,93572.69
2023-04-28T10:23:52.966Z,93570.50
2023-04-28T10:26:22.089Z,93572.69
2023-04-28T10:28:52.316Z,93567.66
2023-04-28T10:31:21.530Z,93566.91
2023-04-28T10:33:49.882Z,93555.38
2023-04-28T10:36:55.162Z,93570.59
2023-04-28T10:39:22.561Z,93559.09
2023-04-28T10:41:50.283Z,93559.53
2023-04-28T10:44:33.267Z,93555.50
2023-04-28T10:47:06.940Z,93558.50
2023-04-28T10:49:59.195Z,93554.88
2023-04-28T10:52:39.886Z,93552.72
2023-04-28T10:55:33.832Z,93558.88
2023-04-28T10:58:16.977Z,93551.28
2023-04-28T11:00:48.153Z,93545.00
2023-04-28T11:03:47.632Z,93531.91
2023-04-28T11:06:26.970Z,93542.75
2023-04-28T11:08:57.991Z,93536.91
2023-04-28T11:11:30.193Z,93535.81
2023-04-28T11:14:21.034Z,93529.25
2023-04-28T11:17:08.727Z,93532.97
2023-04-28T11:19:36.682Z,93532.94
2023-04-28T11:22:11.974Z,93523.63
2023-04-28T11:24:39.902Z,93527.91
2023-04-28T11:27:07.336Z,93515.53
2023-04-28T11:29:39.694Z,93526.62
2023-04-28T11:32:10.043Z,93524.22
2023-04-28T11:34:38.089Z,93515.03
2023-04-28T11:37:08.612Z,93516.03
2023-04-28T11:39:37.398Z,93509.06
2023-04-28T11:42:11.079Z,93504.88
2023-04-28T11:44:39.217Z,93511.62
2023-04-28T11:47:07.739Z,93508.16
2023-04-28T11:49:45.948Z,93498.13
2023-04-28T11:52:13.953Z,93501.56
2023-04-28T11:54:44.485Z,93501.00
2023-04-28T11:57:22.083Z,93498.00
2023-04-28T11:59:50.797Z,93491.06
2023-04-28T12:02:28.413Z,93492.41
2023-04-28T12:04:56.585Z,93492.03
2023-04-28T12:07:24.754Z,93482.47
2023-04-28T12:10:11.936Z,93488.38
2023-04-28T12:12:50.883Z,93481.94
2023-04-28T12:15:21.074Z,93475.31
2023-04-28T12:17:51.149Z,93480.06
2023-04-28T12:20:37.171Z,93475.28
2023-04-28T12:23:05.786Z,93471.72
2023-04-28T12:25:35.347Z,93457.25
2023-04-28T12:28:10.973Z,93454.16
2023-04-28T12:30:45.558Z,93456.31
2023-04-28T12:33:26.450Z,93458.44
2023-04-28T12:35:55.476Z,93453.06
2023-04-28T12:38:24.032Z,93456.25
2023-04-28T12:40:53.050Z,93441.97
2023-04-28T12:43:23.622Z,93440.03
2023-04-28T12:45:56.680Z,93452.69
2023-04-28T12:48:25.486Z,93436.16
2023-04-28T12:50:53.043Z,93434.62
2023-04-28T12:53:20.419Z,93433.50
2023-04-28T12:55:48.085Z,93441.56
2023-04-28T12:58:15.370Z,93435.22
2023-04-28T13:00:43.228Z,93425.19
2023-04-28T13:03:11.108Z,93425.41
2023-04-28T13:05:38.543Z,93423.25
2023-04-28T13:08:05.978Z,93434.81
2023-04-28T13:10:33.794Z,93427.28
2023-04-28T13:13:02.547Z,93429.91
2023-04-28T13:15:31.183Z,93432.53
2023-04-28T13:18:00.074Z,93423.94
2023-04-28T13:20:27.439Z,93423.34
2023-04-28T13:22:54.813Z,93420.47
2023-04-28T13:25:23.059Z,93422.53
2023-04-28T13:27:50.508Z,93410.06
2023-04-28T13:30:17.827Z,93413.09
2023-04-28T13:32:45.723Z,93411.38
2023-04-28T13:35:13.167Z,93424.41
2023-04-28T13:37:45.841Z,93416.00
2023-04-28T13:40:13.749Z,93426.62
2023-04-28T13:42:41.259Z,93421.91
2023-04-28T13:45:08.905Z,93417.94
2023-04-28T13:47:36.589Z,93414.78
2023-04-28T13:50:04.074Z,93414.84
2023-04-28T13:52:31.681Z,93415.34
2023-04-28T13:54:59.486Z,93413.59
2023-04-28T13:57:26.949Z,93412.59
2023-04-28T13:59:54.347Z,93405.03
2023-04-28T14:02:22.259Z,93404.88
2023-04-28T14:04:51.212Z,93401.78
2023-04-28T14:07:18.973Z,93399.81
2023-04-28T14:09:46.685Z,93399.44
2023-04-28T14:12:15.660Z,93406.56
2023-04-28T14:14:43.037Z,93399.87
2023-04-28T14:17:10.454Z,93408.22
2023-04-28T14:19:38.207Z,93395.84
2023-04-28T14:22:05.720Z,93393.69
2023-04-28T14:24:34.536Z,93405.44
2023-04-28T14:27:02.305Z,93402.47
2023-04-28T14:29:29.615Z,93392.03
2023-04-28T14:31:57.149Z,93401.06
2023-04-28T14:34:24.985Z,93390.16
2023-04-28T14:36:53.077Z,93394.72
2023-04-28T14:39:20.478Z,93388.53
2023-04-28T14:41:48.075Z,93385.63
2023-04-28T14:44:16.276Z,93380.53
2023-04-28T14:46:43.735Z,93382.59
2023-04-28T14:49:11.524Z,93378.53
2023-04-28T14:51:38.816Z,93377.69
2023-04-28T14:54:06.188Z,93369.25
2023-04-28T14:56:34.027Z,93365.84
2023-04-28T14:59:01.338Z,93372.00
2023-04-28T15:01:28.717Z,93371.06
2023-04-28T15:03:56.715Z,93375.13
2023-04-28T15:06:24.342Z,93365.88
2023-04-28T15:08:51.919Z,93365.28
2023-04-28T15:11:19.729Z,93362.13
2023-04-28T15:13:47.025Z,93366.03
2023-04-28T15:16:14.396Z,93370.56
2023-04-28T15:18:42.512Z,93368.69
2023-04-28T15:21:09.954Z,93366.47
2023-04-28T15:23:37.761Z,93370.09
2023-04-28T15:26:05.562Z,93373.44
2023-04-28T15:28:32.910Z,93379.34
2023-04-28T15:31:00.348Z,93361.81
2023-04-28T15:33:29.045Z,93360.41
2023-04-28T15:35:56.580Z,93359.69
2023-04-28T15:38:23.900Z,93362.28
2023-04-28T15:40:51.610Z,93361.69
2023-04-28T15:43:18.873Z,93358.34
2023-04-28T15:45:47.208Z,93361.97
2023-04-28T15:48:15.430Z,93358.62
2023-04-28T15:50:43.407Z,93357.88
2023-04-28T15:53:10.925Z,93359.81
2023-04-28T15:55:38.652Z,93360.50
2023-04-28T15:58:06.253Z,93361.53
2023-04-28T16:00:34.369Z,93359.44
2023-04-28T16:03:02.483Z,93358.84
2023-04-28T16:05:30.331Z,93361.84
2023-04-28T16:07:57.898Z,93354.75
2023-04-28T16:10:25.857Z,93352.06
2023-04-28T16:12:53.159Z,93348.66
2023-04-28T16:15:20.528Z,93346.50
2023-04-28T16:17:49.300Z,93351.69
2023-04-28T16:20:16.786Z,93340.34
2023-04-28T16:22:44.293Z,93349.09
2023-04-28T16:25:12.252Z,93353.03
2023-04-28T16:27:41.179Z,93356.47
2023-04-28T16:30:10.199Z,93369.47
2023-04-28T16:32:38.806Z,93366.25
2023-04-28T16:35:11.758Z,93377.00
2023-04-28T16:37:41.161Z,93372.25
2023-04-28T16:40:09.490Z,93369.91
2023-04-28T16:42:36.868Z,93370.84
2023-04-28T16:45:05.074Z,93374.09
2023-04-28T16:47:33.664Z,93376.84
2023-04-28T16:50:01.181Z,93386.03
2023-04-28T16:52:28.841Z,93376.87
2023-04-28T16:54:56.301Z,93381.03
2023-04-28T16:57:23.675Z,93396.56
2023-04-28T16:59:51.846Z,93385.84
2023-04-28T17:02:19.413Z,93392.56
2023-04-28T17:04:46.871Z,93397.28
2023-04-28T17:07:14.495Z,93390.16
2023-04-28T17:09:41.896Z,93395.75
2023-04-28T17:12:09.612Z,93392.84
2023-04-28T17:14:40.376Z,93392.59
2023-04-28T17:17:08.341Z,93400.50
2023-04-28T17:19:35.912Z,93410.25
2023-04-28T17:22:03.621Z,93412.06
2023-04-28T17:24:31.086Z,93412.06
2023-04-28T17:26:59.007Z,93413.84
2023-04-28T17:29:27.143Z,93417.06
2023-04-28T17:31:54.726Z,93422.69
2023-04-28T17:34:22.296Z,93413.16
2023-04-28T17:36:49.999Z,93423.09
2023-04-28T17:39:17.386Z,93427.75
2023-04-28T17:41:45.405Z,93423.66
2023-04-28T17:44:13.236Z,93432.91
2023-04-28T17:46:40.849Z,93436.47
2023-04-28T17:49:08.884Z,93434.66
2023-04-28T17:51:38.211Z,93443.53
2023-04-28T17:54:09.612Z,93445.94
2023-04-28T17:56:38.596Z,93451.34
2023-04-28T17:59:08.417Z,93447.06
2023-04-28T18:01:36.275Z,93450.94
2023-04-28T18:04:04.311Z,93452.31
2023-04-28T18:06:31.793Z,93460.16
2023-04-28T18:08:59.266Z,93467.78
2023-04-28T18:11:28.274Z,93467.44
2023-04-28T18:13:55.728Z,93474.94
2023-04-28T18:16:23.236Z,93476.69
2023-04-28T18:18:50.896Z,93480.50
2023-04-28T18:21:18.298Z,93493.09
2023-04-28T18:23:47.208Z,93475.16
2023-04-28T18:26:14.702Z,93490.78
2023-04-28T18:28:42.226Z,93497.75
2023-04-28T18:31:09.676Z,93500.78
2023-04-28T18:33:37.305Z,93503.84
2023-04-28T18:36:07.366Z,93503.47
2023-04-28T18:38:36.672Z,93506.84
2023-04-28T18:41:15.161Z,93503.59
2023-04-28T18:43:43.678Z,93499.63
2023-04-28T18:46:11.443Z,93500.53
2023-04-28T18:48:39.283Z,93500.88
2023-04-28T18:51:06.738Z,93499.44
2023-04-28T18:53:35.483Z,93496.56
2023-04-28T18:56:02.946Z,93505.16
2023-04-28T18:58:30.277Z,93501.44
2023-04-28T19:00:58.746Z,93503.19
2023-04-28T19:03:27.437Z,93499.25
2023-04-28T19:05:55.567Z,93505.75
2023-04-28T19:08:23.546Z,93501.38
2023-04-28T19:10:51.009Z,93489.69
2023-04-28T19:13:18.712Z,93495.12
2023-04-28T19:15:47.320Z,93497.84
2023-04-28T19:18:14.807Z,93504.78
2023-04-28T19:20:42.383Z,93504.91
2023-04-28T19:23:10.432Z,93512.22
2023-04-28T19:25:38.633Z,93509.19
2023-04-28T19:28:06.662Z,93506.47
2023-04-28T19:30:34.640Z,93514.78
2023-04-28T19:33:02.501Z,93507.78
2023-04-28T19:35:29.792Z,93506.47
2023-04-28T19:37:57.655Z,93512.41
2023-04-28T19:40:28.441Z,93509.06
2023-04-28T19:42:55.797Z,93507.91
2023-04-28T19:45:23.690Z,93511.34
2023-04-28T19:47:53.045Z,93508.84
2023-04-28T19:50:20.379Z,93505.78
2023-04-28T19:52:48.273Z,93506.66
2023-04-28T19:55:20.354Z,93511.94
2023-04-28T19:57:48.133Z,93507.97
2023-04-28T20:00:15.965Z,93518.34
2023-04-28T20:02:44.600Z,93514.00
2023-04-28T20:05:13.012Z,93511.16
2023-04-28T20:07:41.815Z,93520.38
2023-04-28T20:10:09.899Z,93514.34
2023-04-28T20:12:37.282Z,93514.78
2023-04-28T20:15:05.243Z,93514.03
2023-04-28T20:17:33.125Z,93521.59
2023-04-28T20:20:00.649Z,93524.06
2023-04-28T20:22:28.053Z,93511.44
2023-04-28T20:24:57.926Z,93509.19
2023-04-28T20:27:25.322Z,93517.38
2023-04-28T20:29:53.879Z,93516.69
2023-04-28T20:32:21.667Z,93512.91
2023-04-28T20:34:49.062Z,93504.97
2023-04-28T20:37:16.880Z,93506.72
2023-04-28T20:39:44.527Z,93503.62
2023-04-28T20:42:11.977Z,93504.09
2023-04-28T20:44:40.090Z,93502.09
2023-04-28T20:47:08.005Z,93506.03
2023-04-28T20:49:36.157Z,93507.94
2023-04-28T20:52:06.717Z,93515.25
2023-04-28T20:54:36.314Z,93512.97
2023-04-28T20:57:04.942Z,93510.59
2023-04-28T20:59:33.055Z,93512.53
2023-04-28T21:02:01.087Z,93516.88
2023-04-28T21:04:28.674Z,93515.16
2023-04-28T21:06:56.255Z,93522.78
2023-04-28T21:09:25.420Z,93519.19
2023-04-28T21:11:53.656Z,93516.91
2023-04-28T21:14:22.415Z,93524.59
2023-04-28T21:16:50.878Z,93520.38
2023-04-28T21:19:18.752Z,93516.88
2023-04-28T21:21:46.216Z,93519.28
2023-04-28T21:24:14.085Z,93521.72
2023-04-28T21:26:41.483Z,93518.34
2023-04-28T21:29:09.542Z,93515.19
2023-04-28T21:31:37.575Z,93519.25
2023-04-28T21:34:05.057Z,93524.22
2023-04-28T21:36:32.868Z,93513.06
2023-04-28T21:39:00.679Z,93521.78
2023-04-28T21:41:28.394Z,93522.81
2023-04-28T21:43:55.734Z,93519.16
2023-04-28T21:46:23.721Z,93525.09
2023-04-28T21:48:51.304Z,93525.66
2023-04-28T21:51:19.312Z,93522.72
2023-04-28T21:53:47.106Z,93520.13
2023-04-28T21:56:16.147Z,93522.72
2023-04-28T21:58:43.488Z,93520.44
2023-04-28T22:01:15.636Z,93514.06
2023-04-28T22:03:43.647Z,93515.13
2023-04-28T22:06:11.769Z,93516.53
2023-04-28T22:08:39.359Z,93510.53
2023-04-28T22:11:07.322Z,93510.31
2023-04-28T22:13:34.753Z,93513.53
2023-04-28T22:16:02.177Z,93507.69
2023-04-28T22:18:30.210Z,93518.44
2023-04-28T22:20:57.632Z,93512.69
2023-04-28T22:23:25.053Z,93514.13
2023-04-28T22:25:52.764Z,93511.16
2023-04-28T22:28:20.044Z,93511.38
2023-04-28T22:30:47.755Z,93501.97
2023-04-28T22:33:15.855Z,93508.56
2023-04-28T22:35:43.116Z,93507.81
2023-04-28T22:38:10.521Z,93504.19
2023-04-28T22:40:38.225Z,93504.78
2023-04-28T22:43:05.532Z,93510.16
2023-04-28T22:45:32.800Z,93504.56
2023-04-28T22:48:00.838Z,93504.78
2023-04-28T22:50:29.245Z,93509.00
2023-04-28T22:52:56.754Z,93497.00
2023-04-28T22:55:24.499Z,93499.97
2023-04-28T22:57:51.889Z,93491.63
2023-04-28T23:00:19.327Z,93478.47
2023-04-28T23:02:47.173Z,93487.06
2023-04-28T23:05:14.885Z,93482.41
2023-04-28T23:07:42.160Z,93480.59
2023-04-28T23:10:11.523Z,93473.88
2023-04-28T23:12:40.489Z,93475.25
2023-04-28T23:15:08.151Z,93469.87
2023-04-28T23:17:36.020Z,93471.06
2023-04-28T23:20:06.754Z,93469.66
2023-04-28T23:22:34.139Z,93466.47
2023-04-28T23:25:01.717Z,93465.88
2023-04-28T23:27:29.025Z,93463.84
2023-04-28T23:29:56.520Z,93462.59
2023-04-28T23:32:24.406Z,93459.44
2023-04-28T23:34:52.171Z,93441.13
2023-04-28T23:37:19.504Z,93452.69
2023-04-28T23:39:47.205Z,93449.09
2023-04-28T23:42:14.543Z,93442.31
2023-04-28T23:44:41.819Z,93447.13
2023-04-28T23:47:09.375Z,93443.72
2023-04-28T23:49:36.636Z,93444.31
2023-04-28T23:52:04.184Z,93440.53
2023-04-28T23:54:31.838Z,93436.53
2023-04-28T23:56:59.164Z,93433.16
2023-04-28T23:59:27.556Z,93431.56
